Milltimber, United Kingdom
Current Conditions -  °F | °C
As of 1:20 PM on Thursday 30 Oct 2014 (Local Time) from EGPD Reporting Station
Broken Clouds Broken Clouds  
Wind Chill: 54°   Ceiling: 2300
Heat Index: 54°   Visibility: 6mi
Dew Point: 52°   Wind: 7mph
Humidity: 94%   Direction: 180°S
Pressure: 29.88"   Gusts: NA
Location:  57.1°N, 2.24°W
Report Text: EGPD 301320Z 18006KT 9999 SCT006 BKN023 12/11 Q1012 NOSIG
Loading
Personal Weather Stations






























Interactive Weather Map
Tropical Storm Tracking
New forecast layout! Learn more

10-Day Weather Forecast

Advertisements
Track Severe Weather on mobile